This is the latest recevied weather packets stored in our database for station/object OK2BOZ-1. If no packets are shown the sender has not sent any weather packets the latest 10 day(s).
| Time | Temp. | Humidity | Pressure | Rain* | Wind** | Luminosity | Snow |
|---|---|---|---|---|---|---|---|
| 1778043391 | 17.78° C | 68% | 1006.5 hPa | - | - | - | - |
| 1778043076 | 17.22° C | 69% | 1006.5 hPa | - | - | - | - |
| 1778042762 | 17.22° C | 69% | 1006.5 hPa | - | - | - | - |
| 1778042447 | 16.67° C | 71% | 1006.4 hPa | - | - | - | - |
| 1778042132 | 16.11° C | 75% | 1006.3 hPa | - | - | - | - |
| 1778041817 | 16.11° C | 74% | 1006.2 hPa | - | - | - | - |
| 1778041502 | 15.56° C | 84% | 1006.1 hPa | - | - | - | - |
| 1778041188 | 15° C | 99% | 1006.1 hPa | - | - | - | - |
| 1778040874 | 13.89° C | 10% | - | - | - | - | - |
| 1778040560 | 12.78° C | 10% | - | - | - | - | - |
| 1777976159 | 24.44° C | 40% | 1007.8 hPa | - | - | - | - |
| 1777975844 | 24.44° C | 39% | 1007.8 hPa | - | - | - | - |
| 1777975528 | 23.89° C | 40% | 1007.9 hPa | - | - | - | - |
| 1777975213 | 23.33° C | 41% | 1008 hPa | - | - | - | - |
| 1777974898 | 23.33° C | 41% | 1008 hPa | - | - | - | - |
| 1777974582 | 23.33° C | 43% | 1008.1 hPa | - | - | - | - |
| 1777974267 | 22.78° C | 41% | 1008.1 hPa | - | - | - | - |
| 1777973952 | 23.33° C | 41% | 1008.2 hPa | - | - | - | - |
| 1777973636 | 23.33° C | 42% | 1008.2 hPa | - | - | - | - |
| 1777973321 | 23.33° C | 41% | 1008.3 hPa | - | - | - | - |
| 1777973005 | 22.78° C | 41% | 1008.3 hPa | - | - | - | - |
| 1777972690 | 22.78° C | 40% | 1008.4 hPa | - | - | - | - |
| 1777972374 | 22.78° C | 42% | 1008.4 hPa | - | - | - | - |
| 1777972059 | 22.78° C | 42% | 1008.5 hPa | - | - | - | - |
| 1777971744 | 22.22° C | 43% | 1008.5 hPa | - | - | - | - |
* Rain since midnight (hover to see other rain measurements)
** Current wind speed in m/s (hover to see current wind gust speed)